createdAt,value
2022-09-06T00:00:18.090Z,15.78
2022-09-06T00:02:45.398Z,15.72
2022-09-06T00:05:13.381Z,15.73
2022-09-06T00:07:40.544Z,15.73
2022-09-06T00:10:08.436Z,15.68
2022-09-06T00:12:36.073Z,15.66
2022-09-06T00:15:04.242Z,15.62
2022-09-06T00:17:33.239Z,15.65
2022-09-06T00:20:00.092Z,15.62
2022-09-06T00:22:26.967Z,15.62
2022-09-06T00:24:53.731Z,15.58
2022-09-06T00:27:20.540Z,15.57
2022-09-06T00:29:47.345Z,15.56
2022-09-06T00:32:14.190Z,15.55
2022-09-06T00:34:40.986Z,15.53
2022-09-06T00:37:07.773Z,15.55
2022-09-06T00:39:35.411Z,15.53
2022-09-06T00:42:02.212Z,15.53
2022-09-06T00:44:29.051Z,15.52
2022-09-06T00:46:56.247Z,15.53
2022-09-06T00:49:41.822Z,15.48
2022-09-06T00:52:12.631Z,15.45
2022-09-06T00:54:40.625Z,15.46
2022-09-06T00:57:07.984Z,15.42
2022-09-06T00:59:38.198Z,15.42
2022-09-06T01:02:05.871Z,15.42
2022-09-06T01:04:33.666Z,15.36
2022-09-06T01:07:14.173Z,15.35
2022-09-06T01:10:30.155Z,15.33
2022-09-06T01:13:57.416Z,15.23
2022-09-06T01:16:32.808Z,15.21
2022-09-06T01:19:17.821Z,15.22
2022-09-06T01:22:17.996Z,15.19
2022-09-06T01:25:39.089Z,15.16
2022-09-06T01:28:22.061Z,15.18
2022-09-06T01:31:02.890Z,15.17
2022-09-06T01:33:44.939Z,15.14
2022-09-06T01:36:18.762Z,15.13
2022-09-06T01:38:46.079Z,15.10
2022-09-06T01:41:12.880Z,15.07
2022-09-06T01:43:45.157Z,15.08
2022-09-06T01:47:05.611Z,14.98
2022-09-06T01:50:20.959Z,14.95
2022-09-06T01:53:25.299Z,14.95
2022-09-06T01:56:17.675Z,14.93
2022-09-06T01:59:14.225Z,14.90
2022-09-06T02:02:27.090Z,14.91
2022-09-06T02:05:05.450Z,14.86
2022-09-06T02:07:35.748Z,14.84
2022-09-06T02:10:22.959Z,14.81
2022-09-06T02:12:55.113Z,14.80
2022-09-06T02:15:28.811Z,14.79
2022-09-06T02:18:13.339Z,14.77
2022-09-06T02:20:51.957Z,14.74
2022-09-06T02:23:21.493Z,14.75
2022-09-06T02:25:54.827Z,14.72
2022-09-06T02:28:22.974Z,14.72
2022-09-06T02:30:54.722Z,14.71
2022-09-06T02:33:29.484Z,14.71
2022-09-06T02:35:56.868Z,14.71
2022-09-06T02:38:26.448Z,14.69
2022-09-06T02:40:55.235Z,14.66
2022-09-06T02:43:22.020Z,14.65
2022-09-06T02:45:49.026Z,14.60
2022-09-06T02:48:15.891Z,14.58
2022-09-06T02:50:42.675Z,14.57
2022-09-06T02:53:12.835Z,14.54
2022-09-06T02:55:39.910Z,14.51
2022-09-06T02:58:09.955Z,14.52
2022-09-06T03:00:37.921Z,14.51
2022-09-06T03:03:05.244Z,14.51
2022-09-06T03:05:32.256Z,14.49
2022-09-06T03:07:59.463Z,14.49
2022-09-06T03:10:26.539Z,14.55
2022-09-06T03:12:54.053Z,14.59
2022-09-06T03:15:20.902Z,14.63
2022-09-06T03:17:47.746Z,14.62
2022-09-06T03:20:14.835Z,14.66
2022-09-06T03:22:42.394Z,14.67
2022-09-06T03:25:11.200Z,14.72
2022-09-06T03:27:38.331Z,14.70
2022-09-06T03:30:07.291Z,14.73
2022-09-06T03:32:34.393Z,14.78
2022-09-06T03:35:01.277Z,14.77
2022-09-06T03:37:28.503Z,14.81
2022-09-06T03:39:55.411Z,14.81
2022-09-06T03:42:22.645Z,14.83
2022-09-06T03:44:49.468Z,14.89
2022-09-06T03:47:19.407Z,14.89
2022-09-06T03:49:47.203Z,14.89
2022-09-06T03:52:14.660Z,14.95
2022-09-06T03:54:41.464Z,14.98
2022-09-06T03:57:08.311Z,15.03
2022-09-06T03:59:35.681Z,15.02
2022-09-06T04:02:03.005Z,15.10
2022-09-06T04:04:30.332Z,15.12
2022-09-06T04:06:57.159Z,15.11
2022-09-06T04:09:24.206Z,15.13
2022-09-06T04:11:51.154Z,15.16
2022-09-06T04:14:18.036Z,15.14
2022-09-06T04:16:44.877Z,15.17
2022-09-06T04:19:11.884Z,15.20
2022-09-06T04:21:39.015Z,15.20
2022-09-06T04:24:05.931Z,15.22
2022-09-06T04:26:33.167Z,15.22
2022-09-06T04:29:00.178Z,15.18
2022-09-06T04:31:27.599Z,15.22
2022-09-06T04:33:54.419Z,15.23
2022-09-06T04:36:21.770Z,15.23
2022-09-06T04:38:48.556Z,15.23
2022-09-06T04:41:17.536Z,15.19
2022-09-06T04:43:45.071Z,15.18
2022-09-06T04:46:25.180Z,15.18
2022-09-06T04:48:54.002Z,15.20
2022-09-06T04:51:22.061Z,15.20
2022-09-06T04:53:49.109Z,15.18
2022-09-06T04:56:23.212Z,15.17
2022-09-06T04:58:51.728Z,15.16
2022-09-06T05:01:19.135Z,15.15
2022-09-06T05:03:47.145Z,15.15
2022-09-06T05:06:21.650Z,15.14
2022-09-06T05:08:49.484Z,15.14
2022-09-06T05:11:17.483Z,15.14
2022-09-06T05:13:47.397Z,15.17
2022-09-06T05:16:14.660Z,15.19
2022-09-06T05:18:41.585Z,15.21
2022-09-06T05:21:08.435Z,15.20
2022-09-06T05:23:35.445Z,15.22
2022-09-06T05:26:02.663Z,15.23
2022-09-06T05:28:29.990Z,15.23
2022-09-06T05:31:10.170Z,15.17
2022-09-06T05:33:37.163Z,15.23
2022-09-06T05:36:07.619Z,15.20
2022-09-06T05:38:34.444Z,15.23
2022-09-06T05:41:01.417Z,15.25
2022-09-06T05:43:28.207Z,15.18
2022-09-06T05:45:55.084Z,15.24
2022-09-06T05:48:21.995Z,15.25
2022-09-06T05:50:48.828Z,15.25
2022-09-06T05:53:15.619Z,15.31
2022-09-06T05:55:43.249Z,15.31
2022-09-06T05:58:10.156Z,15.31
2022-09-06T06:00:37.039Z,15.31
2022-09-06T06:03:03.800Z,15.36
2022-09-06T06:05:30.620Z,15.35
2022-09-06T06:07:59.097Z,15.31
2022-09-06T06:10:26.055Z,15.35
2022-09-06T06:12:52.888Z,15.34
2022-09-06T06:15:19.691Z,15.37
2022-09-06T06:17:46.455Z,15.35
2022-09-06T06:20:13.414Z,15.39
2022-09-06T06:22:40.197Z,15.39
2022-09-06T06:25:07.526Z,15.43
2022-09-06T06:27:35.523Z,15.37
2022-09-06T06:30:02.310Z,15.44
2022-09-06T06:32:29.100Z,15.43
2022-09-06T06:34:55.882Z,15.45
2022-09-06T06:37:22.747Z,15.49
2022-09-06T06:39:49.732Z,15.53
2022-09-06T06:42:16.614Z,15.53
2022-09-06T06:44:43.452Z,15.59
2022-09-06T06:47:10.245Z,15.61
2022-09-06T06:49:37.035Z,15.66
2022-09-06T06:52:04.025Z,15.61
2022-09-06T06:54:31.213Z,15.69
2022-09-06T06:56:58.017Z,15.73
2022-09-06T06:59:24.850Z,15.77
2022-09-06T07:01:51.929Z,15.78
2022-09-06T07:04:18.798Z,15.76
2022-09-06T07:12:30.453Z,15.85
2022-09-06T07:14:57.238Z,15.84
2022-09-06T07:17:24.046Z,15.87
2022-09-06T07:22:39.662Z,15.89
2022-09-06T07:25:08.452Z,15.85
2022-09-06T07:27:51.015Z,15.85
2022-09-06T07:30:20.391Z,15.87
2022-09-06T07:32:48.227Z,15.86
2022-09-06T07:35:15.208Z,15.88
2022-09-06T07:37:42.331Z,15.88
2022-09-06T07:40:10.412Z,15.95
2022-09-06T07:42:37.372Z,16.02
2022-09-06T07:45:05.649Z,16.07
2022-09-06T07:53:09.525Z,16.29
2022-09-06T07:55:39.821Z,16.28
2022-09-06T07:58:06.599Z,16.33
2022-09-06T08:00:33.550Z,16.32
2022-09-06T08:03:00.354Z,16.25
2022-09-06T08:11:01.247Z,16.24
2022-09-06T08:13:28.152Z,16.34
2022-09-06T08:16:07.543Z,16.39
2022-09-06T08:18:38.391Z,16.55
2022-09-06T08:21:12.601Z,16.70
2022-09-06T08:23:52.548Z,16.85
2022-09-06T08:26:21.556Z,17.02
2022-09-06T08:28:48.951Z,17.10
2022-09-06T08:31:18.130Z,17.19
2022-09-06T08:33:45.073Z,17.28
2022-09-06T08:36:12.315Z,17.28
2022-09-06T08:38:39.495Z,17.30
2022-09-06T08:41:15.294Z,17.30
2022-09-06T08:47:13.685Z,17.31
2022-09-06T08:49:47.379Z,17.27
2022-09-06T08:52:24.384Z,17.36
2022-09-06T08:55:06.394Z,17.43
2022-09-06T08:57:52.655Z,17.47
2022-09-06T09:00:20.828Z,17.49
2022-09-06T09:02:55.368Z,17.55
2022-09-06T09:05:28.447Z,17.58
2022-09-06T09:08:27.440Z,17.58
2022-09-06T09:11:07.951Z,17.66
2022-09-06T09:13:55.686Z,17.67
2022-09-06T09:16:23.544Z,17.78
2022-09-06T09:18:55.511Z,17.79
2022-09-06T09:21:30.437Z,17.82
2022-09-06T09:24:03.720Z,17.84
2022-09-06T09:26:39.817Z,17.93
2022-09-06T09:29:11.673Z,18.01
2022-09-06T09:31:53.616Z,18.07
2022-09-06T09:34:39.853Z,18.14
2022-09-06T09:40:07.797Z,18.39
2022-09-06T09:42:37.817Z,18.38
2022-09-06T09:45:24.827Z,18.40
2022-09-06T09:47:52.111Z,18.50
2022-09-06T09:50:32.592Z,18.61
2022-09-06T09:53:15.794Z,18.80
2022-09-06T09:55:44.249Z,18.98
2022-09-06T09:58:37.494Z,19.21
2022-09-06T10:01:23.219Z,19.36
2022-09-06T10:09:37.534Z,19.39
2022-09-06T10:12:05.094Z,19.47
2022-09-06T10:14:44.322Z,19.48
2022-09-06T10:17:30.988Z,19.46
2022-09-06T10:20:04.199Z,19.51
2022-09-06T10:22:40.189Z,19.49
2022-09-06T10:25:15.960Z,19.45
2022-09-06T10:28:13.256Z,19.50
2022-09-06T10:30:58.115Z,19.48
2022-09-06T10:33:46.136Z,19.56
2022-09-06T10:36:26.398Z,19.59
2022-09-06T10:39:00.369Z,19.56
2022-09-06T10:41:48.916Z,19.47
2022-09-06T10:44:35.199Z,19.48
2022-09-06T10:47:13.561Z,19.45
2022-09-06T10:49:46.131Z,19.49
2022-09-06T10:52:26.936Z,19.44
2022-09-06T10:55:02.302Z,19.44
2022-09-06T11:00:49.553Z,19.33
2022-09-06T11:06:25.503Z,19.06
2022-09-06T11:09:47.599Z,18.99
2022-09-06T11:12:33.397Z,18.98
2022-09-06T11:15:03.740Z,18.91
2022-09-06T11:17:47.735Z,18.83
2022-09-06T11:20:31.377Z,18.87
2022-09-06T11:23:29.521Z,18.93
2022-09-06T11:26:05.426Z,19.02
2022-09-06T11:28:37.760Z,19.07
2022-09-06T11:31:05.927Z,19.13
2022-09-06T11:33:36.575Z,19.23
2022-09-06T11:36:40.896Z,19.28
2022-09-06T11:39:09.696Z,19.41
2022-09-06T11:41:41.533Z,19.48
2022-09-06T11:44:10.703Z,19.65
2022-09-06T11:46:38.935Z,19.88
2022-09-06T11:49:29.861Z,20.15
2022-09-06T11:51:56.696Z,20.50
2022-09-06T11:54:35.095Z,20.60
2022-09-06T11:57:13.148Z,20.67
2022-09-06T11:59:46.129Z,20.76
2022-09-06T12:02:41.083Z,20.76
2022-09-06T12:05:14.077Z,20.81
2022-09-06T12:08:24.944Z,20.92
2022-09-06T12:11:30.562Z,21.04
2022-09-06T12:14:03.847Z,21.15
2022-09-06T12:16:58.638Z,21.33
2022-09-06T12:20:06.208Z,21.43
2022-09-06T12:22:33.360Z,21.47
2022-09-06T12:25:24.598Z,21.49
2022-09-06T12:28:03.384Z,21.51
2022-09-06T12:30:37.437Z,21.52
2022-09-06T12:33:22.583Z,21.51
2022-09-06T12:35:58.631Z,21.51
2022-09-06T12:38:26.429Z,21.52
2022-09-06T12:40:58.610Z,21.56
2022-09-06T12:43:26.571Z,21.53
2022-09-06T12:45:53.663Z,21.45
2022-09-06T12:48:36.258Z,21.37
2022-09-06T12:51:06.942Z,21.30
2022-09-06T12:53:35.117Z,21.35
2022-09-06T12:56:10.280Z,21.41
2022-09-06T12:58:38.867Z,21.50
2022-09-06T13:01:26.372Z,21.63
2022-09-06T13:04:13.034Z,21.72
2022-09-06T13:06:43.649Z,21.82
2022-09-06T13:09:15.620Z,21.87
2022-09-06T13:11:51.966Z,21.98
2022-09-06T13:14:28.334Z,22.01
2022-09-06T13:16:58.420Z,22.09
2022-09-06T13:19:40.696Z,21.97
2022-09-06T13:22:11.298Z,22.03
2022-09-06T13:24:47.025Z,22.04
2022-09-06T13:27:38.554Z,22.04
2022-09-06T13:30:09.508Z,22.05
2022-09-06T13:32:46.185Z,22.12
2022-09-06T13:35:24.022Z,22.19
2022-09-06T13:37:51.115Z,22.27
2022-09-06T13:41:08.994Z,22.35
2022-09-06T13:43:29.450Z,22.36
2022-09-06T13:46:08.429Z,22.35
2022-09-06T13:48:36.057Z,22.37
2022-09-06T13:51:09.779Z,22.30
2022-09-06T13:53:36.726Z,22.28
2022-09-06T13:56:03.920Z,22.29
2022-09-06T13:58:30.821Z,22.35
2022-09-06T14:00:58.779Z,22.33
2022-09-06T14:03:31.250Z,22.27
2022-09-06T14:06:00.591Z,22.13
2022-09-06T14:08:49.267Z,22.21
2022-09-06T14:11:18.597Z,22.28
2022-09-06T14:13:46.031Z,22.33
2022-09-06T14:16:12.970Z,22.38
2022-09-06T14:18:40.684Z,22.42
2022-09-06T14:21:07.969Z,22.48
2022-09-06T14:23:34.817Z,22.51
2022-09-06T14:26:04.126Z,22.48
2022-09-06T14:28:33.723Z,22.41
2022-09-06T14:31:13.009Z,22.22
2022-09-06T14:33:39.990Z,22.19
2022-09-06T14:36:12.484Z,22.17
2022-09-06T14:38:41.828Z,22.15
2022-09-06T14:41:09.911Z,22.09
2022-09-06T14:43:37.988Z,22.00
2022-09-06T14:46:14.426Z,22.01
2022-09-06T14:48:43.076Z,22.00
2022-09-06T14:51:22.136Z,22.05
2022-09-06T14:53:56.329Z,22.09
2022-09-06T14:56:23.928Z,22.16
2022-09-06T14:58:50.808Z,22.18
2022-09-06T15:01:21.582Z,22.16
2022-09-06T15:03:52.382Z,22.22
2022-09-06T15:06:22.195Z,22.26
2022-09-06T15:08:50.373Z,22.21
2022-09-06T15:11:40.333Z,22.19
2022-09-06T15:14:13.529Z,22.23
2022-09-06T15:16:40.355Z,22.23
2022-09-06T15:19:08.037Z,22.17
2022-09-06T15:21:34.963Z,22.12
2022-09-06T15:24:03.219Z,22.19
2022-09-06T15:26:30.651Z,22.21
2022-09-06T15:28:57.570Z,22.17
2022-09-06T15:31:24.543Z,22.21
2022-09-06T15:33:52.224Z,22.23
2022-09-06T15:36:19.263Z,22.24
2022-09-06T15:38:51.084Z,22.23
2022-09-06T15:41:22.805Z,22.14
2022-09-06T15:43:52.830Z,22.14
2022-09-06T15:46:41.002Z,22.11
2022-09-06T15:49:10.189Z,21.89
2022-09-06T15:51:38.991Z,21.97
2022-09-06T15:54:07.166Z,21.92
2022-09-06T15:56:34.284Z,21.89
2022-09-06T15:59:01.418Z,21.83
2022-09-06T16:01:28.522Z,21.83
2022-09-06T16:04:03.816Z,21.79
2022-09-06T16:06:42.168Z,21.85
2022-09-06T16:09:14.364Z,21.93
2022-09-06T16:11:42.333Z,22.00
2022-09-06T16:14:13.263Z,22.04
2022-09-06T16:16:41.927Z,21.97
2022-09-06T16:19:10.174Z,21.99
2022-09-06T16:21:39.786Z,21.93
2022-09-06T16:24:10.207Z,21.91
2022-09-06T16:26:41.219Z,21.88
2022-09-06T16:29:10.094Z,21.75
2022-09-06T16:31:40.233Z,21.77
2022-09-06T16:34:09.950Z,21.76
2022-09-06T16:36:37.557Z,21.74
2022-09-06T16:39:05.346Z,21.65
2022-09-06T16:41:39.567Z,21.63
2022-09-06T16:44:16.626Z,21.58
2022-09-06T16:46:50.055Z,21.52
2022-09-06T16:49:17.890Z,21.48
2022-09-06T16:51:46.005Z,21.41
2022-09-06T16:54:14.123Z,21.34
2022-09-06T16:56:41.658Z,21.26
2022-09-06T16:59:10.448Z,21.23
2022-09-06T17:01:42.028Z,21.18
2022-09-06T17:04:09.993Z,21.12
2022-09-06T17:06:44.964Z,21.07
2022-09-06T17:09:16.194Z,21.07
2022-09-06T17:11:43.107Z,21.08
2022-09-06T17:14:10.118Z,21.08
2022-09-06T17:16:55.771Z,21.18
2022-09-06T17:19:22.711Z,21.21
2022-09-06T17:21:50.202Z,21.21
2022-09-06T17:24:17.017Z,21.27
2022-09-06T17:26:43.886Z,21.29
2022-09-06T17:29:11.055Z,21.30
2022-09-06T17:31:38.234Z,21.27
2022-09-06T17:34:05.451Z,21.22
2022-09-06T17:36:33.951Z,21.30
2022-09-06T17:39:04.626Z,21.36
2022-09-06T17:41:46.141Z,21.35
2022-09-06T17:44:17.008Z,21.45
2022-09-06T17:47:02.662Z,21.31
2022-09-06T17:49:31.767Z,21.38
2022-09-06T17:51:58.636Z,21.28
2022-09-06T17:54:25.925Z,21.25
2022-09-06T17:56:53.014Z,21.15
2022-09-06T17:59:19.972Z,21.14
2022-09-06T18:01:47.039Z,21.10
2022-09-06T18:04:14.898Z,21.01
2022-09-06T18:06:43.714Z,20.90
2022-09-06T18:09:15.589Z,20.82
2022-09-06T18:11:46.056Z,20.70
2022-09-06T18:14:17.797Z,20.60
2022-09-06T18:16:47.406Z,20.49
2022-09-06T18:19:15.456Z,20.40
2022-09-06T18:21:42.772Z,20.30
2022-09-06T18:24:10.850Z,20.20
2022-09-06T18:26:37.823Z,20.10
2022-09-06T18:29:08.523Z,19.91
2022-09-06T18:31:35.921Z,19.88
2022-09-06T18:34:02.776Z,19.84
2022-09-06T18:36:32.414Z,19.78
2022-09-06T18:39:05.066Z,19.71
2022-09-06T18:41:52.199Z,19.62
2022-09-06T18:44:19.232Z,19.53
2022-09-06T18:46:46.324Z,19.49
2022-09-06T18:49:15.291Z,19.43
2022-09-06T18:51:43.769Z,19.39
2022-09-06T18:54:11.264Z,19.31
2022-09-06T18:56:38.687Z,19.28
2022-09-06T18:59:06.240Z,19.19
2022-09-06T19:01:35.234Z,19.13
2022-09-06T19:04:04.094Z,19.12
2022-09-06T19:06:33.507Z,19.07
2022-09-06T19:09:08.367Z,19.02
2022-09-06T19:11:36.084Z,19.00
2022-09-06T19:14:04.408Z,18.95
2022-09-06T19:16:32.088Z,18.93
2022-09-06T19:19:08.560Z,18.87
2022-09-06T19:21:41.016Z,18.87
2022-09-06T19:24:10.919Z,18.83
2022-09-06T19:26:41.684Z,18.80
2022-09-06T19:29:14.851Z,18.80
2022-09-06T19:31:42.759Z,18.80
2022-09-06T19:34:10.077Z,18.75
2022-09-06T19:36:36.913Z,18.72
2022-09-06T19:39:10.318Z,18.70
2022-09-06T19:41:43.099Z,18.70
2022-09-06T19:44:11.336Z,18.69
2022-09-06T19:46:39.456Z,18.69
2022-09-06T19:49:09.436Z,18.67
2022-09-06T19:51:37.304Z,18.67
2022-09-06T19:54:05.158Z,18.68
2022-09-06T19:56:35.060Z,18.63
2022-09-06T19:59:08.050Z,18.65
2022-09-06T20:01:37.758Z,18.66
2022-09-06T20:04:08.200Z,18.63
2022-09-06T20:06:36.100Z,18.57
2022-09-06T20:09:06.751Z,18.56
2022-09-06T20:11:36.171Z,18.55
2022-09-06T20:14:03.378Z,18.53
2022-09-06T20:16:30.796Z,18.49
2022-09-06T20:19:01.745Z,18.44
2022-09-06T20:21:29.742Z,18.42
2022-09-06T20:23:59.498Z,18.35
2022-09-06T20:26:29.562Z,18.31
2022-09-06T20:28:59.864Z,18.25
2022-09-06T20:31:29.343Z,18.22
2022-09-06T20:33:58.243Z,18.12
2022-09-06T20:36:25.521Z,18.08
2022-09-06T20:38:52.432Z,18.03
2022-09-06T20:41:23.651Z,17.95
2022-09-06T20:43:59.274Z,17.92
2022-09-06T20:46:29.605Z,17.84
2022-09-06T20:48:59.904Z,17.81
2022-09-06T20:51:26.895Z,17.76
2022-09-06T20:53:56.887Z,17.72
2022-09-06T20:56:35.241Z,17.61
2022-09-06T20:59:04.850Z,17.58
2022-09-06T21:01:36.115Z,17.56
2022-09-06T21:04:06.444Z,17.51
2022-09-06T21:06:36.350Z,17.47
2022-09-06T21:09:13.478Z,17.43
2022-09-06T21:11:41.381Z,17.40
2022-09-06T21:14:09.988Z,17.36
2022-09-06T21:16:37.853Z,17.32
2022-09-06T21:19:08.995Z,17.28
2022-09-06T21:21:37.099Z,17.22
2022-09-06T21:24:07.082Z,17.21
2022-09-06T21:26:34.331Z,17.19
2022-09-06T21:29:01.620Z,17.19
2022-09-06T21:31:32.338Z,17.17
2022-09-06T21:34:07.415Z,17.19
2022-09-06T21:36:37.440Z,17.18
2022-09-06T21:39:09.687Z,17.19
2022-09-06T21:41:42.507Z,17.12
2022-09-06T21:44:10.551Z,17.19
2022-09-06T21:46:39.555Z,17.19
2022-09-06T21:49:10.422Z,17.18
2022-09-06T21:51:38.862Z,17.19
2022-09-06T21:54:06.315Z,17.17
2022-09-06T21:56:38.459Z,17.14
2022-09-06T21:59:06.578Z,17.14
2022-09-06T22:01:35.691Z,17.13
2022-09-06T22:04:03.707Z,17.12
2022-09-06T22:06:32.609Z,17.11
2022-09-06T22:09:03.709Z,17.10
2022-09-06T22:11:34.045Z,17.04
2022-09-06T22:14:07.072Z,17.04
2022-09-06T22:16:37.598Z,16.98
2022-09-06T22:19:06.846Z,16.89
2022-09-06T22:21:34.926Z,16.90
2022-09-06T22:24:06.439Z,16.86
2022-09-06T22:26:36.742Z,16.88
2022-09-06T22:29:07.163Z,16.85
2022-09-06T22:31:35.722Z,16.86
2022-09-06T22:34:03.386Z,16.86
2022-09-06T22:36:33.806Z,16.88
2022-09-06T22:39:00.646Z,16.84
2022-09-06T22:41:31.663Z,16.82
2022-09-06T22:44:02.415Z,16.79
2022-09-06T22:46:30.160Z,16.75
2022-09-06T22:48:57.344Z,16.72
2022-09-06T22:51:24.396Z,16.68
2022-09-06T22:53:51.261Z,16.62
2022-09-06T22:56:18.420Z,16.53
2022-09-06T22:58:45.292Z,16.47
2022-09-06T23:01:15.376Z,16.47
2022-09-06T23:03:43.052Z,16.42
2022-09-06T23:06:10.917Z,16.40
2022-09-06T23:08:40.591Z,16.32
2022-09-06T23:11:13.766Z,16.23
2022-09-06T23:13:44.072Z,16.23
2022-09-06T23:16:15.474Z,16.18
2022-09-06T23:18:42.901Z,16.17
2022-09-06T23:21:17.474Z,16.13
2022-09-06T23:23:45.455Z,16.12
2022-09-06T23:26:15.975Z,16.07
2022-09-06T23:28:43.616Z,16.02
2022-09-06T23:31:14.306Z,15.95
2022-09-06T23:33:42.384Z,15.95
2022-09-06T23:36:13.278Z,15.89
2022-09-06T23:38:42.023Z,15.84
2022-09-06T23:41:10.448Z,15.83
2022-09-06T23:43:38.562Z,15.78
2022-09-06T23:46:05.401Z,15.77
2022-09-06T23:48:32.460Z,15.72
2022-09-06T23:50:59.805Z,15.68
2022-09-06T23:53:26.907Z,15.65
2022-09-06T23:55:53.812Z,15.62
2022-09-06T23:58:21.243Z,15.58
